sensor_id;sensor_type;location;lat;lon;timestamp;P1;durP1;ratioP1;P2;durP2;ratioP2
77518;SDS011;66629;47.346;19.038;2023-04-06T00:00:47;19.52;;;9.07;;
77518;SDS011;66629;47.346;19.038;2023-04-06T00:03:13;19.73;;;9.52;;
77518;SDS011;66629;47.346;19.038;2023-04-06T00:05:38;16.60;;;9.88;;
77518;SDS011;66629;47.346;19.038;2023-04-06T00:08:04;16.75;;;10.23;;
77518;SDS011;66629;47.346;19.038;2023-04-06T00:10:30;18.73;;;9.73;;
77518;SDS011;66629;47.346;19.038;2023-04-06T00:12:55;15.38;;;9.55;;
77518;SDS011;66629;47.346;19.038;2023-04-06T00:15:22;19.27;;;9.85;;
77518;SDS011;66629;47.346;19.038;2023-04-06T00:17:48;17.08;;;10.13;;
77518;SDS011;66629;47.346;19.038;2023-04-06T00:20:13;17.80;;;10.45;;
77518;SDS011;66629;47.346;19.038;2023-04-06T00:22:39;15.23;;;8.95;;
77518;SDS011;66629;47.346;19.038;2023-04-06T00:25:05;18.90;;;9.82;;
77518;SDS011;66629;47.346;19.038;2023-04-06T00:27:31;15.15;;;9.55;;
77518;SDS011;66629;47.346;19.038;2023-04-06T00:29:56;15.30;;;9.27;;
77518;SDS011;66629;47.346;19.038;2023-04-06T00:32:22;16.63;;;10.10;;
77518;SDS011;66629;47.346;19.038;2023-04-06T00:34:47;15.20;;;8.95;;
77518;SDS011;66629;47.346;19.038;2023-04-06T00:37:12;15.82;;;9.02;;
77518;SDS011;66629;47.346;19.038;2023-04-06T00:39:38;16.75;;;10.02;;
77518;SDS011;66629;47.346;19.038;2023-04-06T00:42:07;14.63;;;9.57;;
77518;SDS011;66629;47.346;19.038;2023-04-06T00:44:37;14.15;;;8.23;;
77518;SDS011;66629;47.346;19.038;2023-04-06T00:47:03;13.52;;;8.63;;
77518;SDS011;66629;47.346;19.038;2023-04-06T00:49:28;15.52;;;8.93;;
77518;SDS011;66629;47.346;19.038;2023-04-06T00:51:53;13.25;;;8.75;;
77518;SDS011;66629;47.346;19.038;2023-04-06T00:54:19;13.50;;;8.20;;
77518;SDS011;66629;47.346;19.038;2023-04-06T00:56:45;12.85;;;7.85;;
77518;SDS011;66629;47.346;19.038;2023-04-06T00:59:10;12.55;;;7.53;;
77518;SDS011;66629;47.346;19.038;2023-04-06T01:01:37;12.10;;;7.47;;
77518;SDS011;66629;47.346;19.038;2023-04-06T01:04:02;12.32;;;7.80;;
77518;SDS011;66629;47.346;19.038;2023-04-06T01:06:28;11.90;;;8.25;;
77518;SDS011;66629;47.346;19.038;2023-04-06T01:08:54;14.05;;;7.85;;
77518;SDS011;66629;47.346;19.038;2023-04-06T01:11:19;12.75;;;7.70;;
77518;SDS011;66629;47.346;19.038;2023-04-06T01:13:45;16.00;;;7.93;;
77518;SDS011;66629;47.346;19.038;2023-04-06T01:16:11;11.48;;;7.90;;
77518;SDS011;66629;47.346;19.038;2023-04-06T01:18:37;13.13;;;7.75;;
77518;SDS011;66629;47.346;19.038;2023-04-06T01:21:03;11.60;;;7.25;;
77518;SDS011;66629;47.346;19.038;2023-04-06T01:23:29;11.90;;;7.80;;
77518;SDS011;66629;47.346;19.038;2023-04-06T01:25:54;12.20;;;7.65;;
77518;SDS011;66629;47.346;19.038;2023-04-06T01:28:20;13.40;;;8.10;;
77518;SDS011;66629;47.346;19.038;2023-04-06T01:30:45;13.18;;;7.90;;
77518;SDS011;66629;47.346;19.038;2023-04-06T01:33:11;13.73;;;8.40;;
77518;SDS011;66629;47.346;19.038;2023-04-06T01:35:36;15.70;;;8.82;;
77518;SDS011;66629;47.346;19.038;2023-04-06T01:38:02;20.65;;;9.35;;
77518;SDS011;66629;47.346;19.038;2023-04-06T01:40:28;14.88;;;8.70;;
77518;SDS011;66629;47.346;19.038;2023-04-06T01:42:53;15.48;;;9.15;;
77518;SDS011;66629;47.346;19.038;2023-04-06T01:45:19;15.13;;;8.73;;
77518;SDS011;66629;47.346;19.038;2023-04-06T01:47:44;13.13;;;8.98;;
77518;SDS011;66629;47.346;19.038;2023-04-06T01:50:10;13.02;;;8.45;;
77518;SDS011;66629;47.346;19.038;2023-04-06T01:52:37;13.93;;;8.32;;
77518;SDS011;66629;47.346;19.038;2023-04-06T01:55:02;15.27;;;9.25;;
77518;SDS011;66629;47.346;19.038;2023-04-06T01:57:28;15.27;;;9.48;;
77518;SDS011;66629;47.346;19.038;2023-04-06T01:59:53;18.00;;;10.25;;
77518;SDS011;66629;47.346;19.038;2023-04-06T02:02:19;18.45;;;9.98;;
77518;SDS011;66629;47.346;19.038;2023-04-06T02:04:44;19.05;;;10.32;;
77518;SDS011;66629;47.346;19.038;2023-04-06T02:07:10;20.55;;;10.50;;
77518;SDS011;66629;47.346;19.038;2023-04-06T02:09:35;17.13;;;9.38;;
77518;SDS011;66629;47.346;19.038;2023-04-06T02:12:01;15.38;;;9.32;;
77518;SDS011;66629;47.346;19.038;2023-04-06T02:14:26;13.70;;;8.60;;
77518;SDS011;66629;47.346;19.038;2023-04-06T02:16:52;11.95;;;8.02;;
77518;SDS011;66629;47.346;19.038;2023-04-06T02:19:18;12.52;;;8.02;;
77518;SDS011;66629;47.346;19.038;2023-04-06T02:21:43;13.88;;;7.75;;
77518;SDS011;66629;47.346;19.038;2023-04-06T02:24:09;12.80;;;7.72;;
77518;SDS011;66629;47.346;19.038;2023-04-06T02:26:34;12.95;;;7.60;;
77518;SDS011;66629;47.346;19.038;2023-04-06T02:29:00;15.70;;;7.82;;
77518;SDS011;66629;47.346;19.038;2023-04-06T02:31:27;15.13;;;9.10;;
77518;SDS011;66629;47.346;19.038;2023-04-06T02:33:52;14.52;;;8.50;;
77518;SDS011;66629;47.346;19.038;2023-04-06T02:36:18;13.73;;;8.80;;
77518;SDS011;66629;47.346;19.038;2023-04-06T02:38:43;18.55;;;9.35;;
77518;SDS011;66629;47.346;19.038;2023-04-06T02:41:08;17.67;;;9.60;;
77518;SDS011;66629;47.346;19.038;2023-04-06T02:43:34;18.52;;;9.60;;
77518;SDS011;66629;47.346;19.038;2023-04-06T02:46:00;16.40;;;9.35;;
77518;SDS011;66629;47.346;19.038;2023-04-06T02:48:25;15.43;;;9.43;;
77518;SDS011;66629;47.346;19.038;2023-04-06T02:50:51;14.85;;;8.30;;
77518;SDS011;66629;47.346;19.038;2023-04-06T02:53:16;12.70;;;8.90;;
77518;SDS011;66629;47.346;19.038;2023-04-06T02:55:42;13.55;;;8.25;;
77518;SDS011;66629;47.346;19.038;2023-04-06T02:58:07;12.55;;;8.43;;
77518;SDS011;66629;47.346;19.038;2023-04-06T03:00:32;15.95;;;9.32;;
77518;SDS011;66629;47.346;19.038;2023-04-06T03:02:58;13.40;;;8.45;;
77518;SDS011;66629;47.346;19.038;2023-04-06T03:05:23;13.95;;;8.98;;
77518;SDS011;66629;47.346;19.038;2023-04-06T03:07:49;16.35;;;8.70;;
77518;SDS011;66629;47.346;19.038;2023-04-06T03:10:14;16.48;;;8.73;;
77518;SDS011;66629;47.346;19.038;2023-04-06T03:12:40;16.17;;;9.57;;
77518;SDS011;66629;47.346;19.038;2023-04-06T03:15:07;17.65;;;9.15;;
77518;SDS011;66629;47.346;19.038;2023-04-06T03:17:32;15.23;;;8.77;;
77518;SDS011;66629;47.346;19.038;2023-04-06T03:19:58;18.63;;;9.07;;
77518;SDS011;66629;47.346;19.038;2023-04-06T03:22:23;15.93;;;8.90;;
77518;SDS011;66629;47.346;19.038;2023-04-06T03:24:49;13.48;;;8.15;;
77518;SDS011;66629;47.346;19.038;2023-04-06T03:27:15;14.10;;;9.15;;
77518;SDS011;66629;47.346;19.038;2023-04-06T03:29:40;13.88;;;8.43;;
77518;SDS011;66629;47.346;19.038;2023-04-06T03:32:06;14.90;;;9.15;;
77518;SDS011;66629;47.346;19.038;2023-04-06T03:34:31;13.90;;;8.75;;
77518;SDS011;66629;47.346;19.038;2023-04-06T03:36:57;15.23;;;8.48;;
77518;SDS011;66629;47.346;19.038;2023-04-06T03:39:22;14.52;;;8.10;;
77518;SDS011;66629;47.346;19.038;2023-04-06T03:41:48;16.48;;;8.15;;
77518;SDS011;66629;47.346;19.038;2023-04-06T03:44:13;15.90;;;8.13;;
77518;SDS011;66629;47.346;19.038;2023-04-06T03:46:39;12.25;;;7.88;;
77518;SDS011;66629;47.346;19.038;2023-04-06T03:49:05;13.52;;;8.90;;
77518;SDS011;66629;47.346;19.038;2023-04-06T03:51:30;14.55;;;9.18;;
77518;SDS011;66629;47.346;19.038;2023-04-06T03:53:56;15.35;;;9.55;;
77518;SDS011;66629;47.346;19.038;2023-04-06T03:56:21;16.42;;;9.57;;
77518;SDS011;66629;47.346;19.038;2023-04-06T03:58:47;16.65;;;8.77;;
77518;SDS011;66629;47.346;19.038;2023-04-06T04:01:15;16.10;;;9.63;;
77518;SDS011;66629;47.346;19.038;2023-04-06T04:03:44;21.25;;;10.35;;
77518;SDS011;66629;47.346;19.038;2023-04-06T04:06:09;15.95;;;9.82;;
77518;SDS011;66629;47.346;19.038;2023-04-06T04:08:35;18.35;;;9.95;;
77518;SDS011;66629;47.346;19.038;2023-04-06T04:11:00;19.00;;;8.82;;
77518;SDS011;66629;47.346;19.038;2023-04-06T04:13:26;17.40;;;9.60;;
77518;SDS011;66629;47.346;19.038;2023-04-06T04:15:51;17.10;;;9.88;;
77518;SDS011;66629;47.346;19.038;2023-04-06T04:18:17;15.43;;;10.00;;
77518;SDS011;66629;47.346;19.038;2023-04-06T04:20:43;18.20;;;10.80;;
77518;SDS011;66629;47.346;19.038;2023-04-06T04:23:09;19.25;;;11.13;;
77518;SDS011;66629;47.346;19.038;2023-04-06T04:25:34;19.52;;;11.10;;
77518;SDS011;66629;47.346;19.038;2023-04-06T04:28:00;20.02;;;10.68;;
77518;SDS011;66629;47.346;19.038;2023-04-06T04:30:26;21.13;;;11.48;;
77518;SDS011;66629;47.346;19.038;2023-04-06T04:32:51;20.27;;;11.02;;
77518;SDS011;66629;47.346;19.038;2023-04-06T04:35:17;20.55;;;11.80;;
77518;SDS011;66629;47.346;19.038;2023-04-06T04:37:42;17.63;;;10.90;;
77518;SDS011;66629;47.346;19.038;2023-04-06T04:40:08;20.45;;;11.35;;
77518;SDS011;66629;47.346;19.038;2023-04-06T04:42:34;22.13;;;11.18;;
77518;SDS011;66629;47.346;19.038;2023-04-06T04:45:00;18.40;;;10.80;;
77518;SDS011;66629;47.346;19.038;2023-04-06T04:47:25;18.23;;;10.15;;
77518;SDS011;66629;47.346;19.038;2023-04-06T04:49:50;15.55;;;9.55;;
77518;SDS011;66629;47.346;19.038;2023-04-06T04:52:16;17.63;;;9.80;;
77518;SDS011;66629;47.346;19.038;2023-04-06T04:54:41;16.30;;;9.85;;
77518;SDS011;66629;47.346;19.038;2023-04-06T04:57:07;14.15;;;9.75;;
77518;SDS011;66629;47.346;19.038;2023-04-06T04:59:33;13.55;;;9.43;;
77518;SDS011;66629;47.346;19.038;2023-04-06T05:01:59;15.15;;;8.85;;
77518;SDS011;66629;47.346;19.038;2023-04-06T05:04:25;16.48;;;10.07;;
77518;SDS011;66629;47.346;19.038;2023-04-06T05:07:01;13.23;;;9.25;;
77518;SDS011;66629;47.346;19.038;2023-04-06T05:09:30;18.67;;;9.10;;
77518;SDS011;66629;47.346;19.038;2023-04-06T05:11:56;17.10;;;9.60;;
77518;SDS011;66629;47.346;19.038;2023-04-06T05:14:22;16.77;;;9.65;;
77518;SDS011;66629;47.346;19.038;2023-04-06T05:16:48;16.80;;;8.93;;
77518;SDS011;66629;47.346;19.038;2023-04-06T05:19:13;14.68;;;9.30;;
77518;SDS011;66629;47.346;19.038;2023-04-06T05:21:39;18.00;;;9.57;;
77518;SDS011;66629;47.346;19.038;2023-04-06T05:24:05;15.80;;;9.00;;
77518;SDS011;66629;47.346;19.038;2023-04-06T05:26:30;11.50;;;7.65;;
77518;SDS011;66629;47.346;19.038;2023-04-06T05:28:56;17.27;;;8.15;;
77518;SDS011;66629;47.346;19.038;2023-04-06T05:31:21;17.85;;;9.70;;
77518;SDS011;66629;47.346;19.038;2023-04-06T05:33:47;14.38;;;7.90;;
77518;SDS011;66629;47.346;19.038;2023-04-06T05:36:12;16.92;;;9.30;;
77518;SDS011;66629;47.346;19.038;2023-04-06T05:38:38;15.15;;;9.15;;
77518;SDS011;66629;47.346;19.038;2023-04-06T05:41:03;15.60;;;9.18;;
77518;SDS011;66629;47.346;19.038;2023-04-06T05:43:29;14.02;;;8.57;;
77518;SDS011;66629;47.346;19.038;2023-04-06T05:45:54;17.98;;;9.63;;
77518;SDS011;66629;47.346;19.038;2023-04-06T05:48:20;14.48;;;8.65;;
77518;SDS011;66629;47.346;19.038;2023-04-06T05:50:49;15.90;;;8.93;;
77518;SDS011;66629;47.346;19.038;2023-04-06T05:53:18;14.48;;;8.65;;
77518;SDS011;66629;47.346;19.038;2023-04-06T05:55:45;16.83;;;8.85;;
77518;SDS011;66629;47.346;19.038;2023-04-06T05:58:11;18.05;;;8.43;;
77518;SDS011;66629;47.346;19.038;2023-04-06T06:00:36;15.75;;;9.82;;
77518;SDS011;66629;47.346;19.038;2023-04-06T06:03:02;15.60;;;9.50;;
77518;SDS011;66629;47.346;19.038;2023-04-06T06:05:29;19.48;;;10.98;;
77518;SDS011;66629;47.346;19.038;2023-04-06T06:07:55;16.33;;;10.32;;
77518;SDS011;66629;47.346;19.038;2023-04-06T06:10:20;18.25;;;11.07;;
77518;SDS011;66629;47.346;19.038;2023-04-06T06:12:46;17.23;;;9.73;;
77518;SDS011;66629;47.346;19.038;2023-04-06T06:15:11;14.77;;;8.88;;
77518;SDS011;66629;47.346;19.038;2023-04-06T06:17:37;13.95;;;9.00;;
77518;SDS011;66629;47.346;19.038;2023-04-06T06:20:04;16.98;;;9.35;;
77518;SDS011;66629;47.346;19.038;2023-04-06T06:22:31;18.17;;;9.50;;
77518;SDS011;66629;47.346;19.038;2023-04-06T06:24:56;19.17;;;9.90;;
77518;SDS011;66629;47.346;19.038;2023-04-06T06:27:22;14.13;;;9.13;;
77518;SDS011;66629;47.346;19.038;2023-04-06T06:29:47;13.23;;;8.48;;
77518;SDS011;66629;47.346;19.038;2023-04-06T06:32:13;16.88;;;9.45;;
77518;SDS011;66629;47.346;19.038;2023-04-06T06:34:39;13.63;;;8.52;;
77518;SDS011;66629;47.346;19.038;2023-04-06T06:37:05;21.85;;;9.45;;
77518;SDS011;66629;47.346;19.038;2023-04-06T06:39:31;14.95;;;9.38;;
77518;SDS011;66629;47.346;19.038;2023-04-06T06:41:56;15.88;;;8.20;;
77518;SDS011;66629;47.346;19.038;2023-04-06T06:44:22;15.73;;;9.00;;
77518;SDS011;66629;47.346;19.038;2023-04-06T06:46:47;16.45;;;9.10;;
77518;SDS011;66629;47.346;19.038;2023-04-06T06:49:13;18.48;;;8.77;;
77518;SDS011;66629;47.346;19.038;2023-04-06T06:51:39;14.13;;;9.05;;
77518;SDS011;66629;47.346;19.038;2023-04-06T06:54:05;16.00;;;9.32;;
77518;SDS011;66629;47.346;19.038;2023-04-06T06:56:31;13.88;;;9.15;;
77518;SDS011;66629;47.346;19.038;2023-04-06T06:58:56;18.58;;;9.63;;
77518;SDS011;66629;47.346;19.038;2023-04-06T07:01:22;15.65;;;9.73;;
77518;SDS011;66629;47.346;19.038;2023-04-06T07:03:48;14.70;;;9.55;;
77518;SDS011;66629;47.346;19.038;2023-04-06T07:06:14;14.70;;;9.88;;
77518;SDS011;66629;47.346;19.038;2023-04-06T07:08:39;15.40;;;10.88;;
77518;SDS011;66629;47.346;19.038;2023-04-06T07:11:05;13.48;;;8.82;;
77518;SDS011;66629;47.346;19.038;2023-04-06T07:13:30;13.63;;;8.60;;
77518;SDS011;66629;47.346;19.038;2023-04-06T07:15:56;15.10;;;8.38;;
77518;SDS011;66629;47.346;19.038;2023-04-06T07:18:21;14.18;;;8.98;;
77518;SDS011;66629;47.346;19.038;2023-04-06T07:20:47;15.63;;;8.57;;
77518;SDS011;66629;47.346;19.038;2023-04-06T07:23:12;14.65;;;8.98;;
77518;SDS011;66629;47.346;19.038;2023-04-06T07:25:38;11.55;;;7.20;;
77518;SDS011;66629;47.346;19.038;2023-04-06T07:28:03;14.95;;;7.95;;
77518;SDS011;66629;47.346;19.038;2023-04-06T07:30:29;15.50;;;8.57;;
77518;SDS011;66629;47.346;19.038;2023-04-06T07:32:55;14.75;;;9.85;;
77518;SDS011;66629;47.346;19.038;2023-04-06T07:35:25;16.60;;;9.18;;
77518;SDS011;66629;47.346;19.038;2023-04-06T07:37:52;13.40;;;8.00;;
77518;SDS011;66629;47.346;19.038;2023-04-06T07:40:18;14.20;;;9.43;;
77518;SDS011;66629;47.346;19.038;2023-04-06T07:42:44;14.40;;;8.38;;
77518;SDS011;66629;47.346;19.038;2023-04-06T07:45:10;15.75;;;8.73;;
77518;SDS011;66629;47.346;19.038;2023-04-06T07:47:36;19.40;;;9.05;;
77518;SDS011;66629;47.346;19.038;2023-04-06T07:50:01;14.52;;;8.50;;
77518;SDS011;66629;47.346;19.038;2023-04-06T07:52:26;14.48;;;8.18;;
77518;SDS011;66629;47.346;19.038;2023-04-06T07:54:52;13.60;;;7.85;;
77518;SDS011;66629;47.346;19.038;2023-04-06T07:57:17;12.90;;;7.63;;
77518;SDS011;66629;47.346;19.038;2023-04-06T07:59:43;17.67;;;10.13;;
77518;SDS011;66629;47.346;19.038;2023-04-06T08:02:08;13.07;;;8.15;;
77518;SDS011;66629;47.346;19.038;2023-04-06T08:04:34;13.70;;;8.02;;
77518;SDS011;66629;47.346;19.038;2023-04-06T08:07:00;13.95;;;7.85;;
77518;SDS011;66629;47.346;19.038;2023-04-06T08:09:26;12.05;;;8.07;;
77518;SDS011;66629;47.346;19.038;2023-04-06T08:11:51;13.77;;;8.73;;
77518;SDS011;66629;47.346;19.038;2023-04-06T08:14:17;13.38;;;8.63;;
77518;SDS011;66629;47.346;19.038;2023-04-06T08:16:42;11.88;;;7.72;;
77518;SDS011;66629;47.346;19.038;2023-04-06T08:19:08;11.63;;;7.40;;
77518;SDS011;66629;47.346;19.038;2023-04-06T08:21:34;13.15;;;7.55;;
77518;SDS011;66629;47.346;19.038;2023-04-06T08:24:00;13.70;;;8.27;;
77518;SDS011;66629;47.346;19.038;2023-04-06T08:26:26;13.30;;;7.00;;
77518;SDS011;66629;47.346;19.038;2023-04-06T08:28:53;12.65;;;7.70;;
77518;SDS011;66629;47.346;19.038;2023-04-06T08:31:18;10.93;;;6.63;;
77518;SDS011;66629;47.346;19.038;2023-04-06T08:33:44;14.73;;;7.68;;
77518;SDS011;66629;47.346;19.038;2023-04-06T08:36:10;16.52;;;7.18;;
77518;SDS011;66629;47.346;19.038;2023-04-06T08:38:37;13.68;;;8.05;;
77518;SDS011;66629;47.346;19.038;2023-04-06T08:41:07;12.10;;;6.43;;
77518;SDS011;66629;47.346;19.038;2023-04-06T08:43:33;11.90;;;7.30;;
77518;SDS011;66629;47.346;19.038;2023-04-06T08:46:09;11.23;;;7.15;;
77518;SDS011;66629;47.346;19.038;2023-04-06T08:48:36;15.07;;;7.43;;
77518;SDS011;66629;47.346;19.038;2023-04-06T08:51:03;12.90;;;7.35;;
77518;SDS011;66629;47.346;19.038;2023-04-06T08:53:29;9.60;;;5.95;;
77518;SDS011;66629;47.346;19.038;2023-04-06T08:55:55;13.23;;;7.32;;
77518;SDS011;66629;47.346;19.038;2023-04-06T08:58:23;17.20;;;7.90;;
77518;SDS011;66629;47.346;19.038;2023-04-06T09:00:50;12.45;;;7.50;;
77518;SDS011;66629;47.346;19.038;2023-04-06T09:03:17;13.98;;;7.80;;
77518;SDS011;66629;47.346;19.038;2023-04-06T09:05:44;13.75;;;7.70;;
77518;SDS011;66629;47.346;19.038;2023-04-06T09:08:11;12.88;;;6.65;;
77518;SDS011;66629;47.346;19.038;2023-04-06T09:10:40;11.35;;;7.78;;
77518;SDS011;66629;47.346;19.038;2023-04-06T09:13:06;15.00;;;8.18;;
77518;SDS011;66629;47.346;19.038;2023-04-06T09:15:32;12.68;;;7.93;;
77518;SDS011;66629;47.346;19.038;2023-04-06T09:17:58;13.35;;;7.85;;
77518;SDS011;66629;47.346;19.038;2023-04-06T09:20:24;9.90;;;7.55;;
77518;SDS011;66629;47.346;19.038;2023-04-06T09:22:52;13.50;;;7.40;;
77518;SDS011;66629;47.346;19.038;2023-04-06T09:25:19;11.57;;;8.65;;
77518;SDS011;66629;47.346;19.038;2023-04-06T09:27:48;19.73;;;7.50;;
77518;SDS011;66629;47.346;19.038;2023-04-06T09:30:23;16.20;;;8.70;;
77518;SDS011;66629;47.346;19.038;2023-04-06T09:32:51;13.75;;;8.00;;
77518;SDS011;66629;47.346;19.038;2023-04-06T09:35:18;15.15;;;8.32;;
77518;SDS011;66629;47.346;19.038;2023-04-06T09:37:47;17.15;;;8.25;;
77518;SDS011;66629;47.346;19.038;2023-04-06T09:40:14;11.95;;;8.38;;
77518;SDS011;66629;47.346;19.038;2023-04-06T09:42:44;14.27;;;8.13;;
77518;SDS011;66629;47.346;19.038;2023-04-06T09:45:11;13.90;;;8.27;;
77518;SDS011;66629;47.346;19.038;2023-04-06T09:47:37;12.68;;;6.72;;
77518;SDS011;66629;47.346;19.038;2023-04-06T09:50:05;10.98;;;8.43;;
77518;SDS011;66629;47.346;19.038;2023-04-06T09:52:33;10.63;;;6.45;;
77518;SDS011;66629;47.346;19.038;2023-04-06T09:55:03;11.27;;;6.72;;
77518;SDS011;66629;47.346;19.038;2023-04-06T10:00:32;11.93;;;6.72;;
77518;SDS011;66629;47.346;19.038;2023-04-06T10:08:11;10.75;;;6.10;;
77518;SDS011;66629;47.346;19.038;2023-04-06T10:10:38;8.87;;;6.50;;
77518;SDS011;66629;47.346;19.038;2023-04-06T10:13:04;7.65;;;5.55;;
77518;SDS011;66629;47.346;19.038;2023-04-06T10:15:30;10.57;;;6.63;;
77518;SDS011;66629;47.346;19.038;2023-04-06T10:17:56;8.40;;;5.50;;
77518;SDS011;66629;47.346;19.038;2023-04-06T10:23:09;9.98;;;6.13;;
77518;SDS011;66629;47.346;19.038;2023-04-06T10:25:58;13.45;;;6.60;;
77518;SDS011;66629;47.346;19.038;2023-04-06T10:28:26;11.43;;;6.60;;
77518;SDS011;66629;47.346;19.038;2023-04-06T10:30:57;8.80;;;6.03;;
77518;SDS011;66629;47.346;19.038;2023-04-06T10:33:23;10.90;;;6.85;;
77518;SDS011;66629;47.346;19.038;2023-04-06T10:35:49;9.80;;;5.82;;
77518;SDS011;66629;47.346;19.038;2023-04-06T10:38:15;11.02;;;5.60;;
77518;SDS011;66629;47.346;19.038;2023-04-06T10:40:45;11.15;;;6.15;;
77518;SDS011;66629;47.346;19.038;2023-04-06T10:45:38;10.68;;;6.13;;
77518;SDS011;66629;47.346;19.038;2023-04-06T10:50:41;9.18;;;6.75;;
77518;SDS011;66629;47.346;19.038;2023-04-06T10:53:08;8.93;;;5.32;;
77518;SDS011;66629;47.346;19.038;2023-04-06T10:55:34;11.55;;;6.72;;
77518;SDS011;66629;47.346;19.038;2023-04-06T10:58:05;9.88;;;6.63;;
77518;SDS011;66629;47.346;19.038;2023-04-06T11:00:32;9.10;;;5.30;;
77518;SDS011;66629;47.346;19.038;2023-04-06T11:03:00;10.18;;;7.15;;
77518;SDS011;66629;47.346;19.038;2023-04-06T11:05:26;8.70;;;5.45;;
77518;SDS011;66629;47.346;19.038;2023-04-06T11:07:52;11.52;;;5.93;;
77518;SDS011;66629;47.346;19.038;2023-04-06T11:10:21;10.98;;;6.15;;
77518;SDS011;66629;47.346;19.038;2023-04-06T11:12:52;8.80;;;5.82;;
77518;SDS011;66629;47.346;19.038;2023-04-06T11:15:19;8.02;;;5.25;;
77518;SDS011;66629;47.346;19.038;2023-04-06T11:17:44;10.85;;;6.28;;
77518;SDS011;66629;47.346;19.038;2023-04-06T11:20:10;8.90;;;5.60;;
77518;SDS011;66629;47.346;19.038;2023-04-06T11:22:36;9.40;;;5.65;;
77518;SDS011;66629;47.346;19.038;2023-04-06T11:25:13;8.73;;;5.60;;
77518;SDS011;66629;47.346;19.038;2023-04-06T11:27:39;9.50;;;5.53;;
77518;SDS011;66629;47.346;19.038;2023-04-06T11:30:05;11.32;;;5.97;;
77518;SDS011;66629;47.346;19.038;2023-04-06T11:32:39;9.18;;;5.55;;
77518;SDS011;66629;47.346;19.038;2023-04-06T11:35:27;11.13;;;5.53;;
77518;SDS011;66629;47.346;19.038;2023-04-06T11:37:56;7.93;;;6.00;;
77518;SDS011;66629;47.346;19.038;2023-04-06T11:40:22;9.05;;;5.40;;
77518;SDS011;66629;47.346;19.038;2023-04-06T11:42:52;11.27;;;5.72;;
77518;SDS011;66629;47.346;19.038;2023-04-06T11:45:19;9.82;;;6.22;;
77518;SDS011;66629;47.346;19.038;2023-04-06T11:47:44;9.48;;;5.05;;
77518;SDS011;66629;47.346;19.038;2023-04-06T11:50:13;12.88;;;5.65;;
77518;SDS011;66629;47.346;19.038;2023-04-06T11:52:39;10.02;;;5.45;;
77518;SDS011;66629;47.346;19.038;2023-04-06T11:55:15;14.05;;;6.35;;
77518;SDS011;66629;47.346;19.038;2023-04-06T11:57:42;9.48;;;6.07;;
77518;SDS011;66629;47.346;19.038;2023-04-06T12:00:09;10.45;;;6.07;;
77518;SDS011;66629;47.346;19.038;2023-04-06T12:02:36;9.20;;;5.88;;
77518;SDS011;66629;47.346;19.038;2023-04-06T12:05:02;10.85;;;5.88;;
77518;SDS011;66629;47.346;19.038;2023-04-06T12:07:29;10.35;;;5.93;;
77518;SDS011;66629;47.346;19.038;2023-04-06T12:09:55;8.63;;;5.32;;
77518;SDS011;66629;47.346;19.038;2023-04-06T12:12:21;8.32;;;5.38;;
77518;SDS011;66629;47.346;19.038;2023-04-06T12:14:46;10.02;;;5.55;;
77518;SDS011;66629;47.346;19.038;2023-04-06T12:17:11;7.82;;;5.47;;
77518;SDS011;66629;47.346;19.038;2023-04-06T12:19:37;9.02;;;5.65;;
77518;SDS011;66629;47.346;19.038;2023-04-06T12:22:02;8.07;;;5.35;;
77518;SDS011;66629;47.346;19.038;2023-04-06T12:24:28;12.50;;;5.60;;
77518;SDS011;66629;47.346;19.038;2023-04-06T12:26:54;10.45;;;6.22;;
77518;SDS011;66629;47.346;19.038;2023-04-06T12:29:20;9.40;;;5.35;;
77518;SDS011;66629;47.346;19.038;2023-04-06T12:31:45;11.73;;;5.88;;
77518;SDS011;66629;47.346;19.038;2023-04-06T12:34:11;10.90;;;6.03;;
77518;SDS011;66629;47.346;19.038;2023-04-06T12:36:37;8.77;;;5.57;;
77518;SDS011;66629;47.346;19.038;2023-04-06T12:39:04;9.27;;;6.55;;
77518;SDS011;66629;47.346;19.038;2023-04-06T12:41:30;9.60;;;6.05;;
77518;SDS011;66629;47.346;19.038;2023-04-06T12:43:56;7.80;;;5.38;;
77518;SDS011;66629;47.346;19.038;2023-04-06T12:46:23;8.63;;;5.00;;
77518;SDS011;66629;47.346;19.038;2023-04-06T12:48:48;12.75;;;5.95;;
77518;SDS011;66629;47.346;19.038;2023-04-06T12:51:14;8.65;;;5.72;;
77518;SDS011;66629;47.346;19.038;2023-04-06T12:53:40;9.38;;;6.00;;
77518;SDS011;66629;47.346;19.038;2023-04-06T12:56:15;8.02;;;5.70;;
77518;SDS011;66629;47.346;19.038;2023-04-06T12:58:46;7.68;;;4.63;;
77518;SDS011;66629;47.346;19.038;2023-04-06T13:01:11;10.13;;;5.43;;
77518;SDS011;66629;47.346;19.038;2023-04-06T13:03:38;12.50;;;6.88;;
77518;SDS011;66629;47.346;19.038;2023-04-06T13:06:04;14.63;;;9.05;;
77518;SDS011;66629;47.346;19.038;2023-04-06T13:08:30;11.43;;;6.50;;
77518;SDS011;66629;47.346;19.038;2023-04-06T13:10:55;13.52;;;7.00;;
77518;SDS011;66629;47.346;19.038;2023-04-06T13:13:28;12.05;;;6.75;;
77518;SDS011;66629;47.346;19.038;2023-04-06T13:15:55;11.60;;;5.23;;
77518;SDS011;66629;47.346;19.038;2023-04-06T13:18:24;9.35;;;5.90;;
77518;SDS011;66629;47.346;19.038;2023-04-06T13:20:50;8.55;;;6.47;;
77518;SDS011;66629;47.346;19.038;2023-04-06T13:23:16;7.93;;;5.55;;
77518;SDS011;66629;47.346;19.038;2023-04-06T13:25:41;7.63;;;4.95;;
77518;SDS011;66629;47.346;19.038;2023-04-06T13:28:07;7.40;;;5.50;;
77518;SDS011;66629;47.346;19.038;2023-04-06T13:30:33;8.02;;;4.97;;
77518;SDS011;66629;47.346;19.038;2023-04-06T13:32:59;9.57;;;5.32;;
77518;SDS011;66629;47.346;19.038;2023-04-06T13:35:24;10.30;;;5.75;;
77518;SDS011;66629;47.346;19.038;2023-04-06T13:37:50;8.52;;;5.45;;
77518;SDS011;66629;47.346;19.038;2023-04-06T13:40:17;8.07;;;4.95;;
77518;SDS011;66629;47.346;19.038;2023-04-06T13:42:42;10.70;;;6.45;;
77518;SDS011;66629;47.346;19.038;2023-04-06T13:45:10;12.85;;;6.90;;
77518;SDS011;66629;47.346;19.038;2023-04-06T13:47:35;12.27;;;6.65;;
77518;SDS011;66629;47.346;19.038;2023-04-06T13:50:01;11.15;;;6.78;;
77518;SDS011;66629;47.346;19.038;2023-04-06T13:52:27;11.77;;;6.38;;
77518;SDS011;66629;47.346;19.038;2023-04-06T13:54:52;10.00;;;7.60;;
77518;SDS011;66629;47.346;19.038;2023-04-06T13:57:18;8.80;;;5.43;;
77518;SDS011;66629;47.346;19.038;2023-04-06T13:59:43;11.02;;;6.30;;
77518;SDS011;66629;47.346;19.038;2023-04-06T14:02:09;12.23;;;7.82;;
77518;SDS011;66629;47.346;19.038;2023-04-06T14:04:35;9.35;;;6.28;;
77518;SDS011;66629;47.346;19.038;2023-04-06T14:07:01;12.75;;;5.40;;
77518;SDS011;66629;47.346;19.038;2023-04-06T14:09:27;9.90;;;5.68;;
77518;SDS011;66629;47.346;19.038;2023-04-06T14:11:53;9.02;;;5.95;;
77518;SDS011;66629;47.346;19.038;2023-04-06T14:14:19;9.98;;;5.47;;
77518;SDS011;66629;47.346;19.038;2023-04-06T14:16:45;10.25;;;5.55;;
77518;SDS011;66629;47.346;19.038;2023-04-06T14:19:12;10.57;;;5.50;;
77518;SDS011;66629;47.346;19.038;2023-04-06T14:21:39;10.10;;;5.70;;
77518;SDS011;66629;47.346;19.038;2023-04-06T14:24:07;8.48;;;5.53;;
77518;SDS011;66629;47.346;19.038;2023-04-06T14:26:34;11.05;;;5.50;;
77518;SDS011;66629;47.346;19.038;2023-04-06T14:29:00;8.40;;;5.60;;
77518;SDS011;66629;47.346;19.038;2023-04-06T14:31:26;11.40;;;6.40;;
77518;SDS011;66629;47.346;19.038;2023-04-06T14:33:51;11.73;;;6.18;;